Terminal Aerodrome Forecast
Issued by NWS

Home | Current Version | Previous Version | Text Only | Print | Product List | Glossary On
Versions: 1 2 3 4 5 6 7 8 9 10 11 12 13 14 15 16 17 18 19
000
FTUS42 KTBW 231100
TAFRSW
TAF
KRSW 231134Z 2312/2412 09006KT P6SM VCSH SCT004 BKN100 BKN250
     FM231400 17006KT P6SM VCTS SCT020CB BKN060
     FM232000 22007KT P6SM VCSH SCT025 BKN040 BKN120
     FM240100 VRB04KT P6SM VCSH FEW020 BKN100=

USA.gov is the U.S. government's official web portal to all federal, state and local government web resources and services.